createdAt,value
2023-02-18T00:00:18.123Z,32.57
2023-02-18T00:01:18.256Z,32.57
2023-02-18T00:02:18.284Z,32.57
2023-02-18T00:03:18.342Z,32.56
2023-02-18T00:04:18.370Z,32.56
2023-02-18T00:05:18.352Z,32.55
2023-02-18T00:06:18.413Z,32.55
2023-02-18T00:07:18.458Z,32.56
2023-02-18T00:08:19.371Z,32.56
2023-02-18T00:09:18.536Z,32.56
2023-02-18T00:10:18.585Z,32.58
2023-02-18T00:11:18.632Z,32.56
2023-02-18T00:12:18.671Z,32.56
2023-02-18T00:13:18.723Z,32.56
2023-02-18T00:14:18.765Z,32.57
2023-02-18T00:15:18.819Z,32.55
2023-02-18T00:16:18.868Z,32.56
2023-02-18T00:17:19.001Z,32.57
2023-02-18T00:18:18.962Z,32.57
2023-02-18T00:19:19.001Z,32.59
2023-02-18T00:20:19.032Z,32.59
2023-02-18T00:21:19.078Z,32.57
2023-02-18T00:22:19.120Z,32.57
2023-02-18T00:23:19.165Z,32.58
2023-02-18T00:24:19.215Z,32.56
2023-02-18T00:25:19.271Z,32.58
2023-02-18T00:26:19.309Z,32.55
2023-02-18T00:27:19.350Z,32.57
2023-02-18T00:28:19.409Z,32.57
2023-02-18T00:29:19.466Z,32.57
2023-02-18T00:30:19.533Z,32.58
2023-02-18T00:31:19.686Z,32.56
2023-02-18T00:32:19.620Z,32.58
2023-02-18T00:33:19.666Z,32.57
2023-02-18T00:34:19.730Z,32.59
2023-02-18T00:35:19.765Z,32.58
2023-02-18T00:36:19.816Z,32.58
2023-02-18T00:37:19.891Z,32.58
2023-02-18T00:38:19.921Z,32.57
2023-02-18T00:39:19.956Z,32.59
2023-02-18T00:40:20.015Z,32.57
2023-02-18T00:41:20.076Z,32.58
2023-02-18T00:42:20.097Z,32.57
2023-02-18T00:43:20.137Z,32.57
2023-02-18T00:44:20.193Z,32.59
2023-02-18T00:45:20.863Z,32.56
2023-02-18T00:46:20.314Z,32.60
2023-02-18T00:47:20.346Z,32.59
2023-02-18T00:48:20.402Z,32.57
2023-02-18T00:49:20.515Z,32.58
2023-02-18T00:50:20.494Z,32.58
2023-02-18T00:51:20.541Z,32.59
2023-02-18T00:52:20.613Z,32.57
2023-02-18T00:53:20.649Z,32.57
2023-02-18T00:54:20.695Z,32.58
2023-02-18T00:55:20.744Z,32.56
2023-02-18T00:56:20.798Z,32.60
2023-02-18T00:57:20.856Z,32.57
2023-02-18T00:58:20.886Z,32.57
2023-02-18T00:59:20.931Z,32.57
2023-02-18T01:00:20.980Z,32.59
2023-02-18T01:01:21.057Z,32.58
2023-02-18T01:02:21.078Z,32.57
2023-02-18T01:03:21.191Z,32.58
2023-02-18T01:04:21.257Z,32.59
2023-02-18T01:05:21.218Z,32.57
2023-02-18T01:06:21.273Z,32.60
2023-02-18T01:07:21.324Z,32.58
2023-02-18T01:08:21.367Z,32.58
2023-02-18T01:09:21.429Z,32.56
2023-02-18T01:10:21.542Z,32.57
2023-02-18T01:11:21.530Z,32.56
2023-02-18T01:12:21.574Z,32.55
2023-02-18T01:13:21.603Z,32.57
2023-02-18T01:14:21.659Z,32.59
2023-02-18T01:15:21.708Z,32.60
2023-02-18T01:16:21.832Z,32.57
2023-02-18T01:17:21.816Z,32.56
2023-02-18T01:18:21.859Z,32.57
2023-02-18T01:19:21.905Z,32.58
2023-02-18T01:20:21.968Z,32.58
2023-02-18T01:21:22.009Z,32.58
2023-02-18T01:22:22.072Z,32.56
2023-02-18T01:23:22.178Z,32.59
2023-02-18T01:24:22.888Z,32.58
2023-02-18T01:25:22.220Z,32.60
2023-02-18T01:26:22.260Z,32.59
2023-02-18T01:27:22.305Z,32.60
2023-02-18T01:28:22.364Z,32.57
2023-02-18T01:29:22.462Z,32.59
2023-02-18T01:30:22.494Z,32.60
2023-02-18T01:31:22.582Z,32.58
2023-02-18T01:32:22.585Z,32.57
2023-02-18T01:33:22.600Z,32.60
2023-02-18T01:34:22.634Z,32.60
2023-02-18T01:35:22.689Z,32.58
2023-02-18T01:36:22.734Z,32.57
2023-02-18T01:37:22.851Z,32.59
2023-02-18T01:38:22.841Z,32.57
2023-02-18T01:39:22.891Z,32.60
2023-02-18T01:40:22.933Z,32.57
2023-02-18T01:41:22.979Z,32.57
2023-02-18T01:42:23.038Z,32.59
2023-02-18T01:43:23.077Z,32.58
2023-02-18T01:44:23.128Z,32.59
2023-02-18T01:45:23.175Z,32.59
2023-02-18T01:46:23.237Z,32.58
2023-02-18T01:47:23.284Z,32.59
2023-02-18T01:48:23.318Z,32.59
2023-02-18T01:49:23.358Z,32.59
2023-02-18T01:50:23.407Z,32.59
2023-02-18T01:51:23.466Z,32.59
2023-02-18T01:52:23.501Z,32.60
2023-02-18T01:53:23.605Z,32.58
2023-02-18T01:54:23.608Z,32.58
2023-02-18T01:55:23.720Z,32.59
2023-02-18T01:56:23.705Z,32.59
2023-02-18T01:57:23.746Z,32.59
2023-02-18T01:58:23.795Z,32.59
2023-02-18T01:59:23.854Z,32.59
2023-02-18T02:00:23.908Z,32.57
2023-02-18T02:01:23.969Z,32.60
2023-02-18T02:02:24.016Z,32.57
2023-02-18T02:03:24.068Z,32.59
2023-02-18T02:04:24.102Z,32.57
2023-02-18T02:05:24.146Z,32.58
2023-02-18T02:06:24.192Z,32.57
2023-02-18T02:07:24.285Z,32.59
2023-02-18T02:08:24.289Z,32.59
2023-02-18T02:09:24.327Z,32.58
2023-02-18T03:14:28.421Z,32.61
2023-02-18T03:16:27.876Z,32.60
2023-02-18T03:17:27.869Z,32.60
2023-02-18T03:18:27.941Z,32.59
2023-02-18T03:19:27.974Z,32.58
2023-02-18T03:20:28.012Z,32.58
2023-02-18T03:21:28.068Z,32.60
2023-02-18T03:22:28.130Z,32.60
2023-02-18T03:23:28.179Z,32.59
2023-02-18T03:24:28.240Z,32.59
2023-02-18T03:25:28.278Z,32.58
2023-02-18T03:26:28.350Z,32.59
2023-02-18T03:27:28.389Z,32.60
2023-02-18T03:28:28.454Z,32.59
2023-02-18T03:29:28.513Z,32.60
2023-02-18T03:30:28.594Z,32.60
2023-02-18T03:31:28.723Z,32.61
2023-02-18T03:32:28.720Z,32.60
2023-02-18T03:33:28.733Z,32.59
2023-02-18T03:34:28.785Z,32.60
2023-02-18T03:35:28.835Z,32.59
2023-02-18T03:36:28.888Z,32.60
2023-02-18T03:37:28.947Z,32.60
2023-02-18T03:39:29.056Z,32.60
2023-02-18T03:40:29.449Z,32.59
2023-02-18T03:41:29.220Z,32.59
2023-02-18T03:42:29.212Z,32.60
2023-02-18T03:43:29.264Z,32.61
2023-02-18T03:44:29.325Z,32.60
2023-02-18T03:45:29.382Z,32.61
2023-02-18T03:46:29.441Z,32.61
2023-02-18T03:47:29.557Z,32.60
2023-02-18T03:48:29.550Z,32.61
2023-02-18T03:49:29.603Z,32.62
2023-02-18T03:50:29.678Z,32.59
2023-02-18T03:51:29.780Z,32.60
2023-02-18T03:52:29.784Z,32.62
2023-02-18T03:54:29.896Z,32.62
2023-02-18T03:55:29.951Z,32.60
2023-02-18T03:56:30.004Z,32.61
2023-02-18T03:57:30.053Z,32.59
2023-02-18T03:58:30.122Z,32.61
2023-02-18T03:59:30.161Z,32.61
2023-02-18T04:00:30.227Z,32.61
2023-02-18T04:01:31.061Z,32.62
2023-02-18T04:02:30.313Z,32.61
2023-02-18T04:03:30.376Z,32.62
2023-02-18T04:04:30.453Z,32.61
2023-02-18T04:05:30.469Z,32.62
2023-02-18T04:06:30.520Z,32.60
2023-02-18T04:07:30.576Z,32.61
2023-02-18T04:08:30.633Z,32.64
2023-02-18T04:09:30.676Z,32.59
2023-02-18T04:10:30.727Z,32.61
2023-02-18T06:20:37.825Z,32.60
2023-02-18T06:21:37.852Z,32.58
2023-02-18T06:22:37.907Z,32.59
2023-02-18T06:23:37.966Z,32.57
2023-02-18T06:24:38.009Z,32.58
2023-02-18T06:25:38.065Z,32.57
2023-02-18T06:26:38.112Z,32.57
2023-02-18T06:27:38.166Z,32.56
2023-02-18T06:28:38.229Z,32.56
2023-02-18T06:29:38.281Z,32.56
2023-02-18T06:30:38.421Z,32.56
2023-02-18T06:31:38.567Z,32.58
2023-02-18T06:32:38.446Z,32.55
2023-02-18T06:33:38.492Z,32.58
2023-02-18T06:34:38.548Z,32.54
2023-02-18T06:35:38.610Z,32.56
2023-02-18T06:36:38.663Z,32.55
2023-02-18T06:37:38.711Z,32.54
2023-02-18T06:38:38.772Z,32.54
2023-02-18T06:39:38.836Z,32.54
2023-02-18T06:40:38.872Z,32.53
2023-02-18T06:41:38.927Z,32.53
2023-02-18T06:42:38.982Z,32.54
2023-02-18T06:43:39.124Z,32.53
2023-02-18T06:44:39.093Z,32.55
2023-02-18T06:45:39.993Z,32.53
2023-02-18T06:46:39.285Z,32.51
2023-02-18T06:47:39.263Z,32.52
2023-02-18T06:48:39.323Z,32.53
2023-02-18T06:49:39.369Z,32.49
2023-02-18T06:50:39.790Z,32.50
2023-02-18T06:51:39.497Z,32.53
2023-02-18T06:52:39.540Z,32.53
2023-02-18T06:53:39.593Z,32.52
2023-02-18T06:54:39.646Z,32.51
2023-02-18T07:28:41.529Z,32.42
2023-02-18T07:29:41.573Z,32.41
2023-02-18T07:30:41.632Z,32.41
2023-02-18T07:31:41.742Z,32.39
2023-02-18T07:32:41.736Z,32.40
2023-02-18T07:33:41.847Z,32.39
2023-02-18T07:34:41.840Z,32.40
2023-02-18T07:35:41.891Z,32.38
2023-02-18T07:36:41.935Z,32.38
2023-02-18T07:37:41.973Z,32.38
2023-02-18T07:38:42.988Z,32.38
2023-02-18T07:39:42.070Z,32.38
2023-02-18T07:40:42.142Z,32.36
2023-02-18T07:41:42.179Z,32.35
2023-02-18T07:42:42.284Z,32.37
2023-02-18T07:43:42.280Z,32.35
2023-02-18T07:44:42.320Z,32.35
2023-02-18T07:45:42.401Z,32.35
2023-02-18T07:46:42.402Z,32.34
2023-02-18T07:47:42.450Z,32.33
2023-02-18T07:48:42.506Z,32.33
2023-02-18T07:49:42.549Z,32.31
2023-02-18T07:50:42.593Z,32.31
2023-02-18T07:51:42.655Z,32.32
2023-02-18T07:52:42.753Z,32.32
2023-02-18T07:53:42.739Z,32.34
2023-02-18T07:54:42.808Z,32.34
2023-02-18T07:55:42.842Z,32.31
2023-02-18T07:56:42.893Z,32.32
2023-02-18T07:57:42.964Z,32.31
2023-02-18T07:58:42.981Z,32.32
2023-02-18T07:59:43.518Z,32.30
2023-02-18T08:00:43.160Z,32.31
2023-02-18T08:01:45.071Z,32.30
2023-02-18T08:02:43.159Z,32.33
2023-02-18T08:03:43.274Z,32.31
2023-02-18T08:04:43.257Z,32.31
2023-02-18T08:05:43.297Z,32.29
2023-02-18T08:06:43.331Z,32.31
2023-02-18T08:07:43.450Z,32.30
2023-02-18T08:08:43.421Z,32.33
2023-02-18T08:09:43.466Z,32.32
2023-02-18T08:10:43.517Z,32.30
2023-02-18T08:11:43.568Z,32.32
2023-02-18T08:12:43.615Z,32.31
2023-02-18T08:13:45.063Z,32.31
2023-02-18T08:14:43.686Z,32.30
2023-02-18T08:15:43.685Z,32.31
2023-02-18T08:16:43.734Z,32.30
2023-02-18T08:17:43.732Z,32.29
2023-02-18T08:18:43.740Z,32.31
2023-02-18T08:19:43.774Z,32.28
2023-02-18T08:20:43.768Z,32.30
2023-02-18T08:21:43.783Z,32.30
2023-02-18T08:22:43.881Z,32.29
2023-02-18T08:23:43.832Z,32.29
2023-02-18T08:24:43.895Z,32.28
2023-02-18T08:25:43.855Z,32.27
2023-02-18T08:26:58.281Z,32.27
2023-02-18T08:27:44.976Z,32.29
2023-02-18T08:28:43.918Z,32.29
2023-02-18T08:29:43.920Z,32.27
2023-02-18T08:30:44.140Z,32.26
2023-02-18T08:31:45.011Z,32.26
2023-02-18T08:32:43.982Z,32.24
2023-02-18T08:33:43.986Z,32.26
2023-02-18T08:34:43.993Z,32.22
2023-02-18T08:35:44.055Z,32.19
2023-02-18T08:36:44.025Z,32.19
2023-02-18T08:37:52.386Z,32.15
2023-02-18T08:38:45.044Z,32.18
2023-02-18T08:39:44.049Z,32.14
2023-02-18T08:40:44.056Z,32.15
2023-02-18T08:41:44.070Z,32.13
2023-02-18T08:42:44.082Z,32.13
2023-02-18T08:43:44.088Z,32.10
2023-02-18T08:44:44.102Z,32.10
2023-02-18T08:45:44.166Z,32.12
2023-02-18T08:46:44.191Z,32.10
2023-02-18T08:48:18.374Z,32.09
2023-02-18T08:48:45.156Z,32.07
2023-02-18T08:49:44.541Z,32.08
2023-02-18T08:50:44.184Z,32.08
2023-02-18T08:51:44.200Z,32.05
2023-02-18T08:52:44.210Z,32.06
2023-02-18T08:53:44.230Z,32.03
2023-02-18T08:54:44.242Z,32.05
2023-02-18T08:55:44.286Z,32.05
2023-02-18T08:56:44.328Z,32.05
2023-02-18T08:57:44.290Z,32.05
2023-02-18T08:58:44.307Z,32.04
2023-02-18T08:59:44.308Z,32.03
2023-02-18T09:00:44.311Z,32.02
2023-02-18T09:01:44.324Z,32.03
2023-02-18T09:02:44.391Z,32.02
2023-02-18T09:03:44.355Z,32.00
2023-02-18T09:04:44.361Z,32.02
2023-02-18T09:05:44.368Z,32.02
2023-02-18T09:06:44.375Z,32.01
2023-02-18T09:07:44.385Z,32.00
2023-02-18T09:08:44.398Z,32.03
2023-02-18T11:07:47.890Z,31.77
2023-02-18T11:08:47.840Z,31.76
2023-02-18T11:09:47.854Z,31.76
2023-02-18T11:10:47.887Z,31.76
2023-02-18T11:11:50.631Z,31.79
2023-02-18T11:12:48.920Z,31.80
2023-02-18T11:13:47.915Z,31.80
2023-02-18T11:14:47.915Z,31.83
2023-02-18T11:15:47.926Z,31.82
2023-02-18T11:16:47.924Z,31.79
2023-02-18T11:17:47.934Z,31.78
2023-02-18T11:18:47.937Z,31.79
2023-02-18T11:19:47.928Z,31.79
2023-02-18T11:20:47.929Z,31.81
2023-02-18T11:21:47.934Z,31.79
2023-02-18T11:22:47.939Z,31.77
2023-02-18T11:23:47.942Z,31.79
2023-02-18T11:24:47.942Z,31.78
2023-02-18T11:25:47.936Z,31.78
2023-02-18T11:26:47.943Z,31.77
2023-02-18T11:27:47.936Z,31.76
2023-02-18T11:28:47.955Z,31.73
2023-02-18T11:29:47.942Z,31.73
2023-02-18T11:30:47.967Z,31.75
2023-02-18T11:31:48.117Z,31.74
2023-02-18T11:32:47.946Z,31.73
2023-02-18T11:33:48.001Z,31.76
2023-02-18T11:34:47.941Z,31.75
2023-02-18T11:35:47.956Z,31.76
2023-02-18T11:36:48.038Z,31.78
2023-02-18T11:37:48.010Z,31.75
2023-02-18T11:38:48.039Z,31.77
2023-02-18T11:39:48.061Z,31.77
2023-02-18T11:40:48.082Z,31.75
2023-02-18T11:41:48.126Z,31.74
2023-02-18T11:42:48.150Z,31.79
2023-02-18T11:43:48.180Z,31.79
2023-02-18T11:44:48.204Z,31.78
2023-02-18T11:45:48.238Z,31.77
2023-02-18T11:46:48.309Z,31.80
2023-02-18T11:47:48.305Z,31.79
2023-02-18T11:48:48.433Z,31.79
2023-02-18T11:49:48.364Z,31.82
2023-02-18T11:50:48.390Z,31.82
2023-02-18T11:51:48.456Z,31.82
2023-02-18T11:52:48.449Z,31.83
2023-02-18T11:53:48.480Z,31.84
2023-02-18T11:54:48.520Z,31.84
2023-02-18T11:55:48.614Z,31.86
2023-02-18T11:56:48.564Z,31.84
2023-02-18T11:57:48.613Z,31.85
2023-02-18T11:58:48.631Z,31.83
2023-02-18T11:59:48.666Z,31.83
2023-02-18T12:00:48.707Z,31.84
2023-02-18T12:01:48.751Z,31.84
2023-02-18T12:02:48.765Z,31.82
2023-02-18T12:03:48.793Z,31.84
2023-02-18T12:04:48.885Z,31.86
2023-02-18T12:05:48.864Z,31.83
2023-02-18T12:06:48.886Z,31.85
2023-02-18T12:07:48.964Z,31.83
2023-02-18T12:08:48.951Z,31.86
2023-02-18T12:09:48.991Z,31.85
2023-02-18T12:10:49.019Z,31.84
2023-02-18T12:11:49.037Z,31.85
2023-02-18T12:12:49.072Z,31.84
2023-02-18T12:13:49.117Z,31.84
2023-02-18T12:14:49.145Z,31.81
2023-02-18T12:15:49.173Z,31.82
2023-02-18T12:16:49.330Z,31.77
2023-02-18T12:17:49.244Z,31.75
2023-02-18T12:18:49.283Z,31.77
2023-02-18T12:19:49.298Z,31.74
2023-02-18T12:20:49.334Z,31.74
2023-02-18T12:21:49.368Z,31.74
2023-02-18T12:22:49.374Z,31.74
2023-02-18T12:23:49.404Z,31.73
2023-02-18T12:24:49.438Z,31.73
2023-02-18T12:25:49.469Z,31.74
2023-02-18T12:26:49.507Z,31.72
2023-02-18T12:27:49.519Z,31.74
2023-02-18T12:28:49.536Z,31.73
2023-02-18T12:29:49.554Z,31.73
2023-02-18T12:30:49.592Z,31.73
2023-02-18T12:31:49.726Z,31.76
2023-02-18T12:32:49.661Z,31.78
2023-02-18T12:33:49.667Z,31.79
2023-02-18T12:34:49.706Z,31.79
2023-02-18T12:35:49.749Z,31.82
2023-02-18T12:36:49.753Z,31.83
2023-02-18T12:37:49.799Z,31.82
2023-02-18T12:38:49.815Z,31.84
2023-02-18T12:39:49.836Z,31.83
2023-02-18T12:40:49.848Z,31.84
2023-02-18T12:41:49.883Z,31.83
2023-02-18T12:42:49.958Z,31.83
2023-02-18T12:43:49.937Z,31.85
2023-02-18T12:44:49.976Z,31.82
2023-02-18T12:45:50.035Z,31.84
2023-02-18T12:46:50.090Z,31.85
2023-02-18T12:47:50.629Z,31.84
2023-02-18T12:48:50.090Z,31.85
2023-02-18T12:49:50.113Z,31.85
2023-02-18T12:50:50.153Z,31.86
2023-02-18T12:51:50.169Z,31.86
2023-02-18T12:52:50.198Z,31.87
2023-02-18T12:53:50.245Z,31.88
2023-02-18T12:54:50.263Z,31.86
2023-02-18T12:55:50.292Z,31.91
2023-02-18T12:56:50.318Z,31.89
2023-02-18T12:57:50.349Z,31.89
2023-02-18T12:58:50.448Z,31.90
2023-02-18T12:59:50.400Z,31.90
2023-02-18T13:00:50.485Z,31.89
2023-02-18T13:01:50.463Z,31.89
2023-02-18T13:02:50.518Z,31.89
2023-02-18T13:03:50.574Z,31.89
2023-02-18T13:04:50.556Z,31.89
2023-02-18T13:05:50.660Z,31.91
2023-02-18T13:06:50.604Z,31.93
2023-02-18T13:07:50.640Z,31.92
2023-02-18T13:08:50.670Z,31.91
2023-02-18T13:09:50.702Z,31.92
2023-02-18T13:10:50.761Z,31.94
2023-02-18T13:11:50.834Z,31.94
2023-02-18T13:12:51.157Z,31.93
2023-02-18T13:13:50.817Z,31.95
2023-02-18T13:14:50.849Z,31.94
2023-02-18T13:15:50.884Z,31.94
2023-02-18T13:16:51.041Z,31.93
2023-02-18T13:17:50.949Z,31.94
2023-02-18T13:18:50.979Z,31.95
2023-02-18T13:19:51.093Z,31.94
2023-02-18T13:20:51.082Z,31.94
2023-02-18T13:21:51.081Z,31.94
2023-02-18T13:22:51.120Z,31.92
2023-02-18T13:23:51.145Z,31.92
2023-02-18T13:24:51.178Z,31.90
2023-02-18T13:25:51.192Z,31.91
2023-02-18T13:26:51.211Z,31.94
2023-02-18T13:27:51.242Z,31.91
2023-02-18T13:28:51.279Z,31.93
2023-02-18T13:29:51.319Z,31.90
2023-02-18T13:30:51.373Z,31.93
2023-02-18T13:31:51.435Z,31.89
2023-02-18T13:32:51.397Z,31.90
2023-02-18T13:33:51.428Z,31.91
2023-02-18T13:34:51.480Z,31.91
2023-02-18T13:35:51.593Z,31.91
2023-02-18T13:36:51.529Z,31.90
2023-02-18T13:37:51.557Z,31.88
2023-02-18T13:38:51.585Z,31.91
2023-02-18T13:39:51.615Z,31.90
2023-02-18T13:40:51.731Z,31.86
2023-02-18T13:42:51.704Z,31.86
2023-02-18T13:43:51.721Z,31.86
2023-02-18T13:44:51.749Z,31.85
2023-02-18T13:45:51.802Z,31.82
2023-02-18T13:46:51.820Z,31.81
2023-02-18T13:47:51.850Z,31.86
2023-02-18T13:48:52.898Z,31.86
2023-02-18T13:49:51.914Z,31.89
2023-02-18T13:50:51.954Z,31.88
2023-02-18T13:51:52.000Z,31.86
2023-02-18T13:52:52.016Z,31.88
2023-02-18T13:53:52.045Z,31.88
2023-02-18T13:54:52.254Z,31.84
2023-02-18T13:55:52.138Z,31.85
2023-02-18T13:56:52.138Z,31.82
2023-02-18T13:58:52.200Z,31.80
2023-02-18T13:59:52.233Z,31.79
2023-02-18T14:00:52.312Z,31.83
2023-02-18T14:01:52.340Z,31.84
2023-02-18T14:02:52.381Z,31.84
2023-02-18T14:03:52.379Z,31.82
2023-02-18T14:04:52.451Z,31.84
2023-02-18T14:05:52.421Z,31.81
2023-02-18T14:06:52.451Z,31.80
2023-02-18T14:07:52.484Z,31.80
2023-02-18T14:08:52.511Z,31.80
2023-02-18T14:09:52.543Z,31.80
2023-02-18T14:10:52.581Z,31.80
2023-02-18T14:11:52.593Z,31.80
2023-02-18T14:12:52.606Z,31.82
2023-02-18T14:13:52.648Z,31.82
2023-02-18T14:14:52.720Z,31.83
2023-02-18T14:15:52.766Z,31.84
2023-02-18T14:16:52.735Z,31.84
2023-02-18T14:17:52.841Z,31.80
2023-02-18T14:18:52.793Z,31.84
2023-02-18T14:25:53.038Z,31.83
2023-02-18T16:27:57.820Z,32.51
2023-02-18T16:28:57.880Z,32.52
2023-02-18T16:29:57.986Z,32.52
2023-02-18T16:30:57.992Z,32.53
2023-02-18T16:31:58.184Z,32.51
2023-02-18T16:32:58.127Z,32.53
2023-02-18T16:33:58.215Z,32.54
2023-02-18T16:34:58.200Z,32.53
2023-02-18T16:35:58.254Z,32.56
2023-02-18T16:36:58.309Z,32.57
2023-02-18T16:37:58.372Z,32.57
2023-02-18T16:38:58.443Z,32.54
2023-02-18T16:39:58.520Z,32.56
2023-02-18T16:40:58.536Z,32.56
2023-02-18T16:41:58.584Z,32.57
2023-02-18T19:21:08.164Z,32.79
2023-02-18T19:22:07.885Z,32.81
2023-02-18T19:23:07.943Z,32.78
2023-02-18T19:24:08.016Z,32.79
2023-02-18T19:25:08.070Z,32.80
2023-02-18T19:26:08.140Z,32.78
2023-02-18T19:27:08.193Z,32.76
2023-02-18T19:28:08.278Z,32.80
2023-02-18T19:29:08.325Z,32.80
2023-02-18T19:30:08.406Z,32.80
2023-02-18T19:31:08.994Z,32.82
2023-02-18T19:33:08.579Z,32.80
2023-02-18T22:03:17.815Z,32.85
2023-02-18T22:04:17.900Z,32.85
2023-02-18T22:05:17.945Z,32.84
2023-02-18T22:06:18.009Z,32.84
2023-02-18T22:07:18.082Z,32.84
2023-02-18T22:08:18.140Z,32.83
2023-02-18T22:09:18.192Z,32.86
2023-02-18T22:10:18.318Z,32.85
2023-02-18T22:11:18.815Z,32.83
2023-02-18T22:12:18.419Z,32.85
2023-02-18T22:13:19.308Z,32.86
2023-02-18T22:14:18.555Z,32.86
2023-02-18T22:15:18.530Z,32.87
2023-02-18T22:16:18.647Z,32.88
2023-02-18T22:17:19.324Z,32.85
2023-02-18T22:18:18.695Z,32.85
2023-02-18T22:19:18.774Z,32.86
